Un Pendik — TCOD2 — position and weather

sailwx.info

Track history (hours):
 
Tides and Currents Weather Stations Pressure Air Temp Water Temp Dewpoint Dewpoint Depression Visibility Wind Speed Wind Dir Waves Ship Positions

Un Pendik

Last reported at 2015-Aug-01 06:30 UTC. Time now 2015-Aug-04 01:26 UTC.
Position N 39°36' E 019°21'.

; draft 6.5 m.

Type: Cargo ship. MMSI: 271000792.

Date/timePositionNaut miles runAvg speedWind from/ knotsBaromVisibWave heightAir tempDewpointWater temp
2015-Aug-01 06:30N 39°36' E 019°21'27513.4
2015-Jul-31 10:04N 36°21' E 023°27'1120.8
2015-Jul-31 09:33N 36°20' E 023°41'2120.6
2015-Jul-31 08:33N 36°17' E 024°06'2020.3
2015-Jul-31 07:33N 36°15' E 024°31'2020.1
2015-Jul-31 06:33N 36°12' E 024°56'2020.2
2015-Jul-31 05:33N 36°10' E 025°21'2120.9
2015-Jul-31 04:33N 36°09' E 025°47'2020.3
2015-Jul-31 03:33N 36°08' E 026°12'2020.4
2015-Jul-31 02:33N 36°05' E 026°37'2120.7
2015-Jul-31 01:33N 36°00' E 027°02'2019.8
2015-Jul-31 00:33N 35°55' E 027°25'1919.0
2015-Jul-30 23:33N 35°49' E 027°47'10820.7
2015-Jul-30 18:18N 35°57' E 030°01'3920.4
2015-Jul-30 16:23N 36°00' E 030°49'7920.6
2015-Jul-30 12:32N 36°00' E 032°27'213 5.5
2015-Jul-28 21:33N 35°49' E 028°04'1919.4
2015-Jul-28 20:33N 35°51' E 027°40'2120.6
2015-Jul-28 19:33N 35°58' E 027°16'2020.2
2015-Jul-28 18:32N 36°03' E 026°52'2020.1
2015-Jul-28 17:33N 36°07' E 026°28'1919.7
2015-Jul-28 16:33N 36°09' E 026°04'2019.4
2015-Jul-28 15:33N 36°10' E 025°40'2019.7
2015-Jul-28 14:33N 36°11' E 025°15'2020.0
2015-Jul-28 13:32N 36°13' E 024°50'2020.1
2015-Jul-28 12:33N 36°15' E 024°26'2020.2
2015-Jul-28 11:33N 36°17' E 024°01'2019.8
2015-Jul-28 10:33N 36°20' E 023°37'2019.6
2015-Jul-28 09:32N 36°22' E 023°12'  
2015-Jul-24 09:24N 36°15' E 024°36'1720.4
2015-Jul-24 08:33N 36°13' E 024°58'2020.4
2015-Jul-24 07:33N 36°10' E 025°23'2120.7
2015-Jul-24 06:33N 36°09' E 025°48'2120.5
2015-Jul-24 05:33N 36°08' E 026°14'2120.4
2015-Jul-24 04:32N 36°05' E 026°39'2019.9
2015-Jul-24 03:33N 36°00' E 027°03'7919.9
2015-Jul-23 23:33N 35°54' E 028°40'7221.3
2015-Jul-23 20:12N 35°55' E 030°09'1421.3
2015-Jul-23 19:33N 35°55' E 030°26'3021.2
2015-Jul-23 18:08N 35°57' E 031°03'17519.7
2015-Jul-23 09:12N 36°41' E 034°33'  
Track history (hours):
 
Tides and Currents Weather Stations Pressure Air Temp Water Temp Dewpoint Dewpoint Depression Visibility Wind Speed Wind Dir Waves Ship Positions

Un Pendik

Last reported at 2015-Aug-01 06:30 UTC. Time now 2015-Aug-04 01:26 UTC.
Position N 39°36' E 019°21'.

; draft 6.5 m.

Type: Cargo ship. MMSI: 271000792.

Date/timePositionNaut miles runAvg speedWind from/ knotsBaromVisibWave heightAir tempDewpointWater temp
2015-Aug-01 06:30N 39°36' E 019°21'27513.4
2015-Jul-31 10:04N 36°21' E 023°27'1120.8
2015-Jul-31 09:33N 36°20' E 023°41'2120.6
2015-Jul-31 08:33N 36°17' E 024°06'2020.3
2015-Jul-31 07:33N 36°15' E 024°31'2020.1
2015-Jul-31 06:33N 36°12' E 024°56'2020.2
2015-Jul-31 05:33N 36°10' E 025°21'2120.9
2015-Jul-31 04:33N 36°09' E 025°47'2020.3
2015-Jul-31 03:33N 36°08' E 026°12'2020.4
2015-Jul-31 02:33N 36°05' E 026°37'2120.7
2015-Jul-31 01:33N 36°00' E 027°02'2019.8
2015-Jul-31 00:33N 35°55' E 027°25'1919.0
2015-Jul-30 23:33N 35°49' E 027°47'10820.7
2015-Jul-30 18:18N 35°57' E 030°01'3920.4
2015-Jul-30 16:23N 36°00' E 030°49'7920.6
2015-Jul-30 12:32N 36°00' E 032°27'213 5.5
2015-Jul-28 21:33N 35°49' E 028°04'1919.4
2015-Jul-28 20:33N 35°51' E 027°40'2120.6
2015-Jul-28 19:33N 35°58' E 027°16'2020.2
2015-Jul-28 18:32N 36°03' E 026°52'2020.1
2015-Jul-28 17:33N 36°07' E 026°28'1919.7
2015-Jul-28 16:33N 36°09' E 026°04'2019.4
2015-Jul-28 15:33N 36°10' E 025°40'2019.7
2015-Jul-28 14:33N 36°11' E 025°15'2020.0
2015-Jul-28 13:32N 36°13' E 024°50'2020.1
2015-Jul-28 12:33N 36°15' E 024°26'2020.2
2015-Jul-28 11:33N 36°17' E 024°01'2019.8
2015-Jul-28 10:33N 36°20' E 023°37'2019.6
2015-Jul-28 09:32N 36°22' E 023°12'  
2015-Jul-24 09:24N 36°15' E 024°36'1720.4
2015-Jul-24 08:33N 36°13' E 024°58'2020.4
2015-Jul-24 07:33N 36°10' E 025°23'2120.7
2015-Jul-24 06:33N 36°09' E 025°48'2120.5
2015-Jul-24 05:33N 36°08' E 026°14'2120.4
2015-Jul-24 04:32N 36°05' E 026°39'2019.9
2015-Jul-24 03:33N 36°00' E 027°03'7919.9
2015-Jul-23 23:33N 35°54' E 028°40'7221.3
2015-Jul-23 20:12N 35°55' E 030°09'1421.3
2015-Jul-23 19:33N 35°55' E 030°26'3021.2
2015-Jul-23 18:08N 35°57' E 031°03'17519.7
2015-Jul-23 09:12N 36°41' E 034°33'  

Dump ship's entire track history